createdAt,value
2018-09-11T00:02:06.672Z,14.26
2018-09-11T00:04:35.184Z,14.21
2018-09-11T00:07:03.720Z,14.08
2018-09-11T00:09:33.057Z,14.10
2018-09-11T00:12:01.544Z,13.99
2018-09-11T00:14:31.467Z,13.98
2018-09-11T00:17:00.053Z,13.95
2018-09-11T00:19:29.464Z,13.78
2018-09-11T00:21:57.951Z,13.80
2018-09-11T00:24:27.620Z,13.85
2018-09-11T00:26:56.283Z,13.78
2018-09-11T00:29:24.754Z,13.52
2018-09-11T00:31:53.438Z,13.66
2018-09-11T00:34:21.963Z,13.65
2018-09-11T00:36:51.384Z,13.82
2018-09-11T00:39:19.924Z,13.83
2018-09-11T00:41:48.432Z,13.95
2018-09-11T00:44:17.619Z,13.96
2018-09-11T00:46:46.358Z,13.76
2018-09-11T00:49:16.196Z,13.73
2018-09-11T00:51:44.704Z,13.68
2018-09-11T00:54:13.209Z,13.68
2018-09-11T00:56:41.743Z,13.65
2018-09-11T00:59:10.835Z,13.43
2018-09-11T01:01:39.450Z,13.54
2018-09-11T01:04:08.001Z,13.63
2018-09-11T01:06:36.563Z,13.62
2018-09-11T01:09:07.438Z,13.54
2018-09-11T01:11:36.317Z,13.51
2018-09-11T01:14:04.870Z,13.41
2018-09-11T01:16:34.377Z,13.32
2018-09-11T01:19:03.656Z,13.34
2018-09-11T01:21:32.167Z,13.31
2018-09-11T01:24:00.913Z,13.31
2018-09-11T01:26:29.392Z,13.30
2018-09-11T01:28:57.951Z,13.27
2018-09-11T01:31:26.460Z,11.17
2018-09-11T01:33:55.132Z,13.10
2018-09-11T01:36:23.806Z,13.07
2018-09-11T01:38:52.384Z,13.15
2018-09-11T01:41:20.937Z,13.16
2018-09-11T01:43:50.071Z,13.19
2018-09-11T01:46:18.608Z,13.16
2018-09-11T01:48:47.215Z,13.07
2018-09-11T01:51:15.755Z,13.05
2018-09-11T01:53:44.686Z,13.03
2018-09-11T01:56:13.147Z,13.00
2018-09-11T01:58:41.700Z,12.93
2018-09-11T02:01:10.240Z,12.94
2018-09-11T02:03:38.698Z,12.92
2018-09-11T02:06:07.222Z,12.67
2018-09-11T02:08:35.724Z,12.77
2018-09-11T02:11:04.418Z,12.87
2018-09-11T02:13:33.013Z,12.66
2018-09-11T02:16:01.693Z,12.57
2018-09-11T02:18:30.224Z,12.64
2018-09-11T02:20:58.833Z,12.70
2018-09-11T02:23:27.624Z,12.80
2018-09-11T02:25:56.360Z,12.71
2018-09-11T02:28:24.847Z,12.69
2018-09-11T02:30:54.037Z,12.75
2018-09-11T02:33:22.712Z,12.72
2018-09-11T02:35:51.435Z,12.81
2018-09-11T02:38:20.034Z,12.69
2018-09-11T02:40:48.682Z,12.61
2018-09-11T02:43:18.607Z,12.53
2018-09-11T02:45:47.143Z,12.62
2018-09-11T02:48:15.688Z,12.67
2018-09-11T02:50:44.168Z,12.61
2018-09-11T02:53:12.744Z,12.57
2018-09-11T02:55:41.272Z,12.63
2018-09-11T02:58:10.851Z,12.57
2018-09-11T03:00:39.417Z,12.46
2018-09-11T03:03:08.225Z,12.37
2018-09-11T03:05:36.714Z,12.28
2018-09-11T03:08:05.274Z,12.32
2018-09-11T03:10:33.789Z,12.21
2018-09-11T03:13:02.333Z,12.09
2018-09-11T03:15:30.896Z,12.01
2018-09-11T03:17:59.428Z,12.03
2018-09-11T03:20:28.550Z,12.18
2018-09-11T03:22:57.094Z,12.13
2018-09-11T03:25:25.610Z,12.19
2018-09-11T03:27:54.100Z,12.06
2018-09-11T03:30:22.697Z,12.08
2018-09-11T03:32:51.263Z,12.11
2018-09-11T03:35:20.495Z,12.10
2018-09-11T03:37:48.999Z,12.00
2018-09-11T03:40:17.529Z,11.80
2018-09-11T03:42:46.427Z,11.67
2018-09-11T03:45:15.440Z,11.61
2018-09-11T03:47:44.203Z,11.64
2018-09-11T03:50:14.166Z,11.73
2018-09-11T03:52:44.278Z,11.76
2018-09-11T03:55:12.831Z,11.72
2018-09-11T03:57:41.432Z,11.67
2018-09-11T04:00:10.676Z,11.74
2018-09-11T04:02:39.240Z,11.76
2018-09-11T04:05:07.875Z,11.76
2018-09-11T04:07:37.333Z,11.69
2018-09-11T04:10:06.460Z,11.66
2018-09-11T04:12:35.088Z,11.55
2018-09-11T04:15:03.632Z,11.54
2018-09-11T04:17:40.575Z,11.45
2018-09-11T04:20:09.168Z,11.32
2018-09-11T04:22:39.045Z,11.17
2018-09-11T04:25:07.768Z,11.19
2018-09-11T04:27:36.324Z,11.32
2018-09-11T04:30:05.325Z,11.37
2018-09-11T04:32:34.041Z,11.37
2018-09-11T04:35:02.602Z,11.37
2018-09-11T04:37:31.261Z,11.48
2018-09-11T04:39:59.842Z,11.39
2018-09-11T04:42:28.500Z,11.39
2018-09-11T04:44:57.086Z,11.27
2018-09-11T04:47:25.718Z,11.28
2018-09-11T04:49:54.249Z,11.23
2018-09-11T04:52:22.875Z,11.26
2018-09-11T04:54:52.077Z,11.30
2018-09-11T04:57:20.766Z,11.25
2018-09-11T04:59:49.758Z,11.07
2018-09-11T05:02:18.979Z,11.20
2018-09-11T05:04:47.565Z,11.23
2018-09-11T05:07:16.147Z,11.17
2018-09-11T05:09:45.500Z,11.17
2018-09-11T05:12:14.107Z,11.24
2018-09-11T05:14:42.808Z,11.30
2018-09-11T05:17:11.355Z,11.33
2018-09-11T05:19:40.742Z,11.28
2018-09-11T05:22:09.780Z,11.34
2018-09-11T05:24:38.436Z,11.37
2018-09-11T05:27:07.010Z,11.37
2018-09-11T05:29:36.941Z,11.39
2018-09-11T05:32:05.610Z,11.47
2018-09-11T05:34:34.471Z,11.57
2018-09-11T05:37:03.258Z,11.68
2018-09-11T05:39:31.840Z,11.75
2018-09-11T05:42:00.496Z,11.40
2018-09-11T05:44:29.108Z,11.71
2018-09-11T05:46:57.661Z,11.76
2018-09-11T05:49:27.082Z,12.10
2018-09-11T05:51:56.364Z,12.34
2018-09-11T05:54:25.068Z,12.56
2018-09-11T05:56:54.680Z,12.30
2018-09-11T05:59:23.278Z,12.18
2018-09-11T06:01:52.811Z,12.33
2018-09-11T06:04:21.315Z,12.32
2018-09-11T06:06:49.836Z,12.39
2018-09-11T06:09:19.715Z,12.71
2018-09-11T06:11:48.252Z,13.32
2018-09-11T06:14:16.831Z,13.52
2018-09-11T06:16:45.466Z,13.96
2018-09-11T06:19:15.153Z,14.34
2018-09-11T06:21:43.712Z,14.62
2018-09-11T06:24:12.224Z,14.71
2018-09-11T06:26:40.888Z,14.80
2018-09-11T06:29:10.015Z,15.68
2018-09-11T06:31:38.561Z,16.94
2018-09-11T06:34:08.556Z,17.56
2018-09-11T06:36:37.611Z,18.10
2018-09-11T06:39:08.640Z,18.55
2018-09-11T06:41:57.466Z,19.11
2018-09-11T06:44:26.120Z,19.93
2018-09-11T06:46:55.508Z,19.89
2018-09-11T06:49:24.856Z,19.60
2018-09-11T06:51:54.172Z,18.63
2018-09-11T06:54:22.803Z,19.85
2018-09-11T06:56:51.349Z,20.72
2018-09-11T06:59:19.925Z,21.00
2018-09-11T07:01:48.475Z,20.84
2018-09-11T07:04:17.080Z,20.97
2018-09-11T07:06:46.174Z,21.26
2018-09-11T07:09:14.710Z,21.93
2018-09-11T07:11:44.048Z,22.45
2018-09-11T07:14:12.588Z,22.25
2018-09-11T07:16:41.045Z,22.16
2018-09-11T07:19:10.388Z,20.95
2018-09-11T07:21:38.884Z,20.56
2018-09-11T07:24:07.906Z,21.52
2018-09-11T07:26:36.557Z,21.30
2018-09-11T07:29:05.338Z,20.93
2018-09-11T07:31:34.669Z,20.97
2018-09-11T07:34:03.161Z,20.70
2018-09-11T07:36:31.747Z,22.31
2018-09-11T07:39:00.895Z,22.28
2018-09-11T07:41:29.916Z,23.07
2018-09-11T07:43:58.492Z,22.25
2018-09-11T07:46:27.164Z,22.55
2018-09-11T07:48:56.304Z,23.45
2018-09-11T07:51:24.904Z,23.53
2018-09-11T07:53:53.493Z,23.69
2018-09-11T07:56:22.819Z,23.43
2018-09-11T07:58:51.435Z,22.47
2018-09-11T08:01:20.452Z,22.63
2018-09-11T08:03:49.268Z,23.90
2018-09-11T08:06:17.876Z,23.79
2018-09-11T08:08:47.072Z,23.59
2018-09-11T08:11:16.486Z,24.59
2018-09-11T08:13:45.128Z,24.96
2018-09-11T08:16:13.775Z,23.25
2018-09-11T08:18:42.235Z,23.79
2018-09-11T08:21:11.011Z,23.84
2018-09-11T08:23:39.545Z,23.74
2018-09-11T08:26:08.811Z,22.99
2018-09-11T08:28:37.393Z,24.40
2018-09-11T08:31:05.875Z,24.64
2018-09-11T08:33:34.377Z,24.50
2018-09-11T08:36:02.852Z,24.27
2018-09-11T08:38:31.405Z,24.41
2018-09-11T08:41:00.032Z,24.28
2018-09-11T08:43:29.080Z,24.47
2018-09-11T08:45:57.569Z,25.01
2018-09-11T08:48:26.075Z,24.96
2018-09-11T08:50:55.229Z,25.17
2018-09-11T08:53:23.841Z,25.35
2018-09-11T08:55:52.418Z,25.52
2018-09-11T08:58:21.680Z,26.05
2018-09-11T09:00:50.205Z,26.44
2018-09-11T09:03:19.316Z,25.64
2018-09-11T09:05:48.548Z,25.70
2018-09-11T09:08:17.120Z,25.34
2018-09-11T09:10:47.239Z,24.97
2018-09-11T09:13:15.722Z,25.37
2018-09-11T09:15:44.841Z,24.73
2018-09-11T09:18:13.608Z,24.77
2018-09-11T09:20:42.098Z,25.38
2018-09-11T09:23:11.313Z,25.45
2018-09-11T09:25:39.813Z,25.93
2018-09-11T09:28:08.383Z,25.21
2018-09-11T09:30:37.452Z,25.85
2018-09-11T09:33:06.931Z,25.43
2018-09-11T09:35:35.398Z,25.07
2018-09-11T09:38:03.950Z,25.13
2018-09-11T09:40:33.003Z,25.57
2018-09-11T09:43:01.504Z,25.41
2018-09-11T09:45:30.102Z,26.63
2018-09-11T09:47:58.621Z,26.26
2018-09-11T09:50:27.735Z,26.74
2018-09-11T09:52:56.215Z,26.19
2018-09-11T09:55:24.728Z,26.28
2018-09-11T09:57:53.274Z,27.15
2018-09-11T10:00:27.136Z,26.01
2018-09-11T10:02:56.490Z,26.51
2018-09-11T10:05:26.245Z,27.27
2018-09-11T10:07:55.593Z,27.47
2018-09-11T10:10:24.650Z,26.78
2018-09-11T10:12:53.285Z,26.71
2018-09-11T10:15:21.810Z,26.61
2018-09-11T10:17:50.507Z,26.38
2018-09-11T10:20:19.666Z,27.08
2018-09-11T10:22:48.260Z,27.87
2018-09-11T10:25:16.769Z,28.19
2018-09-11T10:27:45.453Z,26.96
2018-09-11T10:30:14.024Z,26.41
2018-09-11T10:32:43.669Z,26.83
2018-09-11T10:35:12.294Z,26.53
2018-09-11T10:37:40.984Z,27.22
2018-09-11T10:40:09.632Z,27.55
2018-09-11T10:42:38.161Z,27.58
2018-09-11T10:45:07.137Z,26.87
2018-09-11T10:47:35.685Z,26.84
2018-09-11T10:50:04.283Z,26.93
2018-09-11T10:52:32.796Z,28.01
2018-09-11T10:55:01.364Z,27.71
2018-09-11T10:57:29.940Z,26.99
2018-09-11T10:59:58.447Z,27.26
2018-09-11T11:02:27.022Z,27.20
2018-09-11T11:04:56.203Z,27.87
2018-09-11T11:07:24.934Z,28.00
2018-09-11T11:09:53.647Z,28.21
2018-09-11T11:12:22.399Z,27.94
2018-09-11T11:14:51.297Z,28.70
2018-09-11T11:17:19.841Z,28.26
2018-09-11T11:19:48.466Z,28.52
2018-09-11T11:22:16.986Z,28.17
2018-09-11T11:24:45.508Z,27.76
2018-09-11T11:27:14.198Z,26.91
2018-09-11T11:29:42.710Z,28.10
2018-09-11T11:32:11.260Z,27.44
2018-09-11T11:34:39.825Z,28.00
2018-09-11T11:37:08.854Z,28.55
2018-09-11T11:39:37.311Z,27.41
2018-09-11T11:42:05.993Z,27.01
2018-09-11T11:44:34.569Z,26.34
2018-09-11T11:47:04.142Z,27.12
2018-09-11T11:49:32.679Z,28.24
2018-09-11T11:52:01.212Z,27.81
2018-09-11T11:54:29.752Z,28.37
2018-09-11T11:56:59.014Z,27.69
2018-09-11T11:59:27.494Z,27.70
2018-09-11T12:01:56.658Z,27.99
2018-09-11T12:04:25.158Z,27.90
2018-09-11T12:06:53.819Z,28.76
2018-09-11T12:09:22.648Z,29.21
2018-09-11T12:11:51.106Z,28.36
2018-09-11T12:14:19.639Z,28.85
2018-09-11T12:16:48.316Z,29.18
2018-09-11T12:19:17.493Z,28.61
2018-09-11T12:21:46.686Z,28.42
2018-09-11T12:24:15.177Z,29.09
2018-09-11T12:26:43.807Z,28.25
2018-09-11T12:29:12.753Z,28.89
2018-09-11T12:31:41.410Z,29.15
2018-09-11T12:34:10.176Z,28.78
2018-09-11T12:36:38.676Z,28.44
2018-09-11T12:39:08.336Z,29.32
2018-09-11T12:41:36.882Z,28.70
2018-09-11T12:44:05.486Z,28.15
2018-09-11T12:46:34.316Z,29.52
2018-09-11T12:49:02.513Z,29.22
2018-09-11T12:51:31.043Z,30.03
2018-09-11T12:53:59.601Z,29.24
2018-09-11T12:56:28.077Z,29.59
2018-09-11T12:58:56.705Z,28.88
2018-09-11T13:01:25.276Z,29.29
2018-09-11T13:03:53.893Z,28.19
2018-09-11T13:06:22.428Z,27.62
2018-09-11T13:08:50.916Z,28.02
2018-09-11T13:11:19.482Z,28.74
2018-09-11T13:13:48.071Z,28.45
2018-09-11T13:16:16.624Z,28.97
2018-09-11T13:18:45.189Z,28.40
2018-09-11T13:21:13.679Z,27.58
2018-09-11T13:23:42.882Z,27.92
2018-09-11T13:26:11.385Z,27.80
2018-09-11T13:28:39.962Z,28.10
2018-09-11T13:31:08.861Z,27.77
2018-09-11T13:33:37.421Z,27.73
2018-09-11T13:36:05.900Z,27.95
2018-09-11T13:38:34.384Z,27.23
2018-09-11T13:41:02.990Z,27.38
2018-09-11T13:43:31.481Z,27.75
2018-09-11T13:46:00.068Z,28.06
2018-09-11T13:48:28.600Z,27.77
2018-09-11T13:50:57.184Z,27.40
2018-09-11T13:53:25.723Z,27.28
2018-09-11T13:55:54.261Z,27.54
2018-09-11T13:58:22.759Z,27.35
2018-09-11T14:00:51.348Z,27.27
2018-09-11T14:03:19.907Z,26.86
2018-09-11T14:05:48.396Z,26.80
2018-09-11T14:08:16.965Z,26.75
2018-09-11T14:10:45.567Z,27.05
2018-09-11T14:13:14.106Z,26.92
2018-09-11T14:15:42.606Z,27.02
2018-09-11T14:18:11.154Z,26.59
2018-09-11T14:20:39.677Z,26.37
2018-09-11T14:23:08.188Z,26.43
2018-09-11T14:25:36.775Z,26.60
2018-09-11T14:28:05.240Z,26.58
2018-09-11T14:30:33.852Z,26.81
2018-09-11T14:33:02.948Z,26.73
2018-09-11T14:35:31.519Z,26.99
2018-09-11T14:38:00.182Z,26.65
2018-09-11T14:40:28.688Z,27.02
2018-09-11T14:42:57.288Z,26.81
2018-09-11T14:45:25.796Z,26.83
2018-09-11T14:47:54.313Z,26.84
2018-09-11T14:50:22.874Z,26.94
2018-09-11T14:52:51.391Z,27.04
2018-09-11T14:55:19.939Z,27.03
2018-09-11T14:57:48.589Z,26.81
2018-09-11T15:00:18.354Z,26.88
2018-09-11T15:02:48.089Z,26.91
2018-09-11T15:05:16.723Z,26.67
2018-09-11T15:07:45.309Z,26.77
2018-09-11T15:10:13.776Z,26.74
2018-09-11T15:12:42.358Z,26.41
2018-09-11T15:15:10.998Z,26.69
2018-09-11T15:17:39.476Z,26.85
2018-09-11T15:20:08.143Z,26.74
2018-09-11T15:22:38.225Z,26.72
2018-09-11T15:25:06.805Z,26.44
2018-09-11T15:27:35.475Z,26.62
2018-09-11T15:30:04.104Z,26.55
2018-09-11T15:32:32.616Z,26.68
2018-09-11T15:35:01.810Z,26.65
2018-09-11T15:37:30.341Z,26.60
2018-09-11T15:39:58.956Z,26.72
2018-09-11T15:42:27.427Z,26.70
2018-09-11T15:44:55.930Z,26.73
2018-09-11T15:47:24.406Z,26.39
2018-09-11T15:49:52.912Z,26.42
2018-09-11T15:52:21.509Z,26.48
2018-09-11T15:54:50.032Z,26.34
2018-09-11T15:57:18.549Z,26.48
2018-09-11T15:59:47.113Z,26.43
2018-09-11T16:02:15.868Z,26.39
2018-09-11T16:04:44.405Z,26.35
2018-09-11T16:07:12.968Z,26.48
2018-09-11T16:09:41.537Z,26.21
2018-09-11T16:12:10.066Z,26.22
2018-09-11T16:14:38.725Z,26.29
2018-09-11T16:17:07.347Z,26.17
2018-09-11T16:19:36.405Z,26.18
2018-09-11T16:22:05.442Z,26.26
2018-09-11T16:24:34.019Z,26.26
2018-09-11T16:27:02.570Z,26.14
2018-09-11T16:29:31.135Z,26.04
2018-09-11T16:31:59.688Z,26.17
2018-09-11T16:34:28.220Z,25.94
2018-09-11T16:36:57.168Z,25.92
2018-09-11T16:39:26.269Z,25.89
2018-09-11T16:41:54.877Z,25.70
2018-09-11T16:44:23.367Z,25.67
2018-09-11T16:46:52.491Z,25.60
2018-09-11T16:49:21.013Z,25.71
2018-09-11T16:51:49.587Z,25.47
2018-09-11T16:54:19.011Z,25.38
2018-09-11T16:57:38.325Z,25.16
2018-09-11T17:00:07.029Z,25.19
2018-09-11T17:02:35.621Z,25.26
2018-09-11T17:05:04.060Z,25.08
2018-09-11T17:07:32.540Z,25.02
2018-09-11T17:10:01.055Z,24.84
2018-09-11T17:12:29.541Z,24.63
2018-09-11T17:14:58.134Z,24.45
2018-09-11T17:17:26.600Z,24.13
2018-09-11T17:19:55.092Z,24.01
2018-09-11T17:22:23.667Z,23.78
2018-09-11T17:24:52.170Z,23.70
2018-09-11T17:27:20.790Z,23.42
2018-09-11T17:29:49.327Z,22.21
2018-09-11T17:32:17.880Z,22.93
2018-09-11T17:34:46.469Z,22.91
2018-09-11T17:39:50.047Z,22.58
2018-09-11T17:42:19.026Z,22.47
2018-09-11T17:44:48.502Z,22.35
2018-09-11T17:47:17.064Z,22.22
2018-09-11T17:49:45.584Z,22.08
2018-09-11T17:52:14.178Z,21.93
2018-09-11T17:54:42.796Z,21.66
2018-09-11T17:57:11.316Z,21.47
2018-09-11T17:59:39.811Z,21.26
2018-09-11T18:02:08.355Z,21.17
2018-09-11T18:04:37.283Z,21.08
2018-09-11T18:07:05.839Z,20.87
2018-09-11T18:09:34.288Z,20.75
2018-09-11T18:12:02.796Z,20.60
2018-09-11T18:14:31.260Z,20.44
2018-09-11T18:16:59.809Z,20.11
2018-09-11T18:19:28.871Z,19.87
2018-09-11T18:21:57.405Z,19.98
2018-09-11T18:24:25.910Z,19.99
2018-09-11T18:26:54.384Z,19.91
2018-09-11T18:29:22.911Z,19.78
2018-09-11T18:31:51.444Z,19.73
2018-09-11T18:34:20.069Z,19.56
2018-09-11T18:36:49.070Z,19.26
2018-09-11T18:39:18.187Z,18.92
2018-09-11T18:41:46.751Z,19.00
2018-09-11T18:44:15.256Z,18.92
2018-09-11T18:46:43.733Z,18.84
2018-09-11T18:49:12.270Z,18.70
2018-09-11T18:51:40.837Z,18.56
2018-09-11T18:54:10.802Z,18.42
2018-09-11T18:56:41.684Z,18.34
2018-09-11T18:59:10.273Z,18.32
2018-09-11T19:01:39.284Z,18.29
2018-09-11T19:04:07.781Z,18.25
2018-09-11T19:06:36.290Z,18.06
2018-09-11T19:09:06.597Z,17.96
2018-09-11T19:11:35.086Z,17.77
2018-09-11T19:14:03.652Z,17.69
2018-09-11T19:16:32.103Z,17.64
2018-09-11T19:19:00.635Z,17.56
2018-09-11T19:21:29.158Z,17.52
2018-09-11T19:23:57.768Z,17.44
2018-09-11T19:26:26.285Z,17.35
2018-09-11T19:28:54.985Z,17.22
2018-09-11T19:31:23.886Z,17.18
2018-09-11T19:33:52.406Z,17.14
2018-09-11T19:36:21.031Z,17.06
2018-09-11T19:38:49.587Z,17.06
2018-09-11T19:41:18.635Z,16.95
2018-09-11T19:43:47.143Z,16.94
2018-09-11T19:46:15.696Z,16.97
2018-09-11T19:48:44.206Z,16.99
2018-09-11T19:51:13.519Z,16.92
2018-09-11T19:53:42.044Z,16.86
2018-09-11T19:56:11.162Z,16.79
2018-09-11T19:58:39.675Z,16.19
2018-09-11T20:01:08.353Z,16.72
2018-09-11T20:03:37.103Z,16.58
2018-09-11T20:06:05.907Z,16.45
2018-09-11T20:08:34.494Z,16.33
2018-09-11T20:11:03.070Z,16.35
2018-09-11T20:13:32.616Z,16.34
2018-09-11T20:16:01.176Z,16.30
2018-09-11T20:18:29.708Z,16.24
2018-09-11T20:20:58.509Z,16.16
2018-09-11T20:23:27.312Z,16.03
2018-09-11T20:25:55.902Z,15.99
2018-09-11T20:28:24.498Z,15.88
2018-09-11T20:30:53.727Z,15.82
2018-09-11T20:33:22.203Z,15.79
2018-09-11T20:35:50.833Z,15.80
2018-09-11T20:38:19.391Z,15.73
2018-09-11T20:40:47.908Z,15.64
2018-09-11T20:43:16.413Z,15.64
2018-09-11T20:45:44.913Z,15.62
2018-09-11T20:48:13.423Z,15.57
2018-09-11T20:50:43.174Z,15.56
2018-09-11T20:53:11.842Z,15.59
2018-09-11T20:55:40.373Z,15.61
2018-09-11T20:58:09.019Z,15.58
2018-09-11T21:00:37.589Z,15.53
2018-09-11T21:03:06.755Z,15.27
2018-09-11T21:05:35.313Z,15.37
2018-09-11T21:08:03.843Z,14.99
2018-09-11T21:10:32.321Z,15.22
2018-09-11T21:13:00.838Z,15.30
2018-09-11T21:15:29.369Z,15.33
2018-09-11T21:17:58.028Z,15.28
2018-09-11T21:20:26.542Z,15.18
2018-09-11T21:22:55.074Z,15.12
2018-09-11T21:25:23.637Z,14.98
2018-09-11T21:27:52.233Z,15.00
2018-09-11T21:30:20.823Z,14.97
2018-09-11T21:32:49.568Z,14.91
2018-09-11T21:35:18.268Z,14.79
2018-09-11T21:37:46.952Z,14.72
2018-09-11T21:40:16.632Z,14.65
2018-09-11T21:42:45.483Z,14.75
2018-09-11T21:45:14.104Z,14.80
2018-09-11T21:47:42.854Z,14.83
2018-09-11T21:50:11.382Z,14.79
2018-09-11T21:52:40.946Z,14.76
2018-09-11T21:55:10.168Z,14.67
2018-09-11T21:57:38.686Z,14.53
2018-09-11T22:00:09.485Z,14.39
2018-09-11T22:02:38.548Z,14.38
2018-09-11T22:05:07.565Z,14.36
2018-09-11T22:07:36.047Z,14.36
2018-09-11T22:10:05.315Z,14.30
2018-09-11T22:12:33.827Z,14.25
2018-09-11T22:15:02.368Z,14.18
2018-09-11T22:17:30.975Z,14.17
2018-09-11T22:19:59.538Z,14.13
2018-09-11T22:22:28.220Z,14.08
2018-09-11T22:24:56.814Z,13.96
2018-09-11T22:27:25.263Z,13.89
2018-09-11T22:29:53.739Z,13.88
2018-09-11T22:32:22.537Z,13.89
2018-09-11T22:34:51.132Z,13.77
2018-09-11T22:37:19.697Z,13.65
2018-09-11T22:39:48.215Z,13.65
2018-09-11T22:42:17.389Z,13.64
2018-09-11T22:44:45.911Z,13.36
2018-09-11T22:47:14.448Z,13.58
2018-09-11T22:49:42.975Z,13.56
2018-09-11T22:52:11.452Z,13.53
2018-09-11T22:54:39.993Z,13.63
2018-09-11T22:57:08.495Z,13.53
2018-09-11T22:59:37.001Z,13.43
2018-09-11T23:02:05.681Z,13.18
2018-09-11T23:04:34.195Z,13.41
2018-09-11T23:07:03.270Z,13.38
2018-09-11T23:09:31.781Z,13.26
2018-09-11T23:12:01.508Z,13.22
2018-09-11T23:14:30.089Z,13.19
2018-09-11T23:16:58.590Z,13.17
2018-09-11T23:19:27.096Z,13.09
2018-09-11T23:21:55.556Z,13.10
2018-09-11T23:24:24.113Z,13.04
2018-09-11T23:26:52.636Z,13.01
2018-09-11T23:29:21.140Z,12.95
2018-09-11T23:31:49.686Z,12.90
2018-09-11T23:34:18.972Z,12.85
2018-09-11T23:36:47.469Z,12.91
2018-09-11T23:39:15.977Z,13.00
2018-09-11T23:41:44.533Z,12.76
2018-09-11T23:44:13.105Z,13.03
2018-09-11T23:46:41.842Z,13.07
2018-09-11T23:49:10.345Z,13.11
2018-09-11T23:51:39.984Z,13.11
2018-09-11T23:54:09.192Z,13.06
2018-09-11T23:56:37.660Z,13.06
2018-09-11T23:59:06.196Z,13.10
